sensor_id;sensor_type;location;lat;lon;timestamp;temperature;humidity
30186;DHT22;31152;49.190;8.122;2023-09-30T00:02:26;18.40;99.90
30186;DHT22;31152;49.190;8.122;2023-09-30T00:04:56;18.40;99.90
30186;DHT22;31152;49.190;8.122;2023-09-30T00:07:23;18.40;99.90
30186;DHT22;31152;49.190;8.122;2023-09-30T00:09:50;18.40;99.90
30186;DHT22;31152;49.190;8.122;2023-09-30T00:12:20;18.40;99.90
30186;DHT22;31152;49.190;8.122;2023-09-30T00:14:47;18.30;99.90
30186;DHT22;31152;49.190;8.122;2023-09-30T00:17:14;18.30;99.90
30186;DHT22;31152;49.190;8.122;2023-09-30T00:19:41;18.20;99.90
30186;DHT22;31152;49.190;8.122;2023-09-30T00:22:08;18.20;99.90
30186;DHT22;31152;49.190;8.122;2023-09-30T00:24:35;18.10;99.90
30186;DHT22;31152;49.190;8.122;2023-09-30T00:27:01;17.90;99.90
30186;DHT22;31152;49.190;8.122;2023-09-30T00:29:28;17.80;99.90
30186;DHT22;31152;49.190;8.122;2023-09-30T00:31:57;17.70;99.90
30186;DHT22;31152;49.190;8.122;2023-09-30T00:34:24;17.60;99.90
30186;DHT22;31152;49.190;8.122;2023-09-30T00:36:50;17.50;99.90
30186;DHT22;31152;49.190;8.122;2023-09-30T00:39:19;17.50;99.90
30186;DHT22;31152;49.190;8.122;2023-09-30T00:41:46;17.40;99.90
30186;DHT22;31152;49.190;8.122;2023-09-30T00:44:13;17.40;99.90
30186;DHT22;31152;49.190;8.122;2023-09-30T00:46:40;17.30;99.90
30186;DHT22;31152;49.190;8.122;2023-09-30T00:49:10;17.30;99.90
30186;DHT22;31152;49.190;8.122;2023-09-30T00:51:40;17.30;99.90
30186;DHT22;31152;49.190;8.122;2023-09-30T00:54:07;17.30;99.90
30186;DHT22;31152;49.190;8.122;2023-09-30T00:56:38;17.20;99.90
30186;DHT22;31152;49.190;8.122;2023-09-30T00:59:10;17.30;99.90
30186;DHT22;31152;49.190;8.122;2023-09-30T01:01:37;17.30;99.90
30186;DHT22;31152;49.190;8.122;2023-09-30T01:04:05;17.30;99.90
30186;DHT22;31152;49.190;8.122;2023-09-30T01:06:32;17.30;99.90
30186;DHT22;31152;49.190;8.122;2023-09-30T01:09:01;17.40;99.90
30186;DHT22;31152;49.190;8.122;2023-09-30T01:11:28;17.40;99.90
30186;DHT22;31152;49.190;8.122;2023-09-30T01:13:55;17.40;99.90
30186;DHT22;31152;49.190;8.122;2023-09-30T01:16:22;17.40;99.90
30186;DHT22;31152;49.190;8.122;2023-09-30T01:18:50;17.40;99.90
30186;DHT22;31152;49.190;8.122;2023-09-30T01:21:18;17.50;99.90
30186;DHT22;31152;49.190;8.122;2023-09-30T01:23:45;17.40;99.90
30186;DHT22;31152;49.190;8.122;2023-09-30T01:26:13;17.40;99.90
30186;DHT22;31152;49.190;8.122;2023-09-30T01:28:41;17.40;99.90
30186;DHT22;31152;49.190;8.122;2023-09-30T01:31:08;17.40;99.90
30186;DHT22;31152;49.190;8.122;2023-09-30T01:33:37;17.40;99.90
30186;DHT22;31152;49.190;8.122;2023-09-30T01:36:05;17.30;99.90
30186;DHT22;31152;49.190;8.122;2023-09-30T01:38:32;17.30;99.90
30186;DHT22;31152;49.190;8.122;2023-09-30T01:40:59;17.20;99.90
30186;DHT22;31152;49.190;8.122;2023-09-30T01:43:27;17.20;99.90
30186;DHT22;31152;49.190;8.122;2023-09-30T01:45:54;17.20;99.90
30186;DHT22;31152;49.190;8.122;2023-09-30T01:48:21;17.10;99.90
30186;DHT22;31152;49.190;8.122;2023-09-30T01:50:48;17.10;99.90
30186;DHT22;31152;49.190;8.122;2023-09-30T01:53:17;17.10;99.90
30186;DHT22;31152;49.190;8.122;2023-09-30T01:55:44;17.00;99.90
30186;DHT22;31152;49.190;8.122;2023-09-30T01:58:11;17.00;99.90
30186;DHT22;31152;49.190;8.122;2023-09-30T02:00:38;17.00;99.90
30186;DHT22;31152;49.190;8.122;2023-09-30T02:03:05;17.00;99.90
30186;DHT22;31152;49.190;8.122;2023-09-30T02:05:32;17.00;99.90
30186;DHT22;31152;49.190;8.122;2023-09-30T02:07:59;17.00;99.90
30186;DHT22;31152;49.190;8.122;2023-09-30T02:10:26;16.90;99.90
30186;DHT22;31152;49.190;8.122;2023-09-30T02:12:53;16.90;99.90
30186;DHT22;31152;49.190;8.122;2023-09-30T02:15:20;16.90;99.90
30186;DHT22;31152;49.190;8.122;2023-09-30T02:17:49;16.90;99.90
30186;DHT22;31152;49.190;8.122;2023-09-30T02:20:16;16.90;99.90
30186;DHT22;31152;49.190;8.122;2023-09-30T02:22:46;17.00;99.90
30186;DHT22;31152;49.190;8.122;2023-09-30T02:25:14;16.90;99.90
30186;DHT22;31152;49.190;8.122;2023-09-30T02:27:41;17.00;99.90
30186;DHT22;31152;49.190;8.122;2023-09-30T02:30:09;17.00;99.90
30186;DHT22;31152;49.190;8.122;2023-09-30T02:32:40;16.90;99.90
30186;DHT22;31152;49.190;8.122;2023-09-30T02:35:08;16.80;99.90
30186;DHT22;31152;49.190;8.122;2023-09-30T02:37:38;16.80;99.90
30186;DHT22;31152;49.190;8.122;2023-09-30T02:40:06;16.80;99.90
30186;DHT22;31152;49.190;8.122;2023-09-30T02:42:39;16.80;99.90
30186;DHT22;31152;49.190;8.122;2023-09-30T02:45:12;16.80;99.90
30186;DHT22;31152;49.190;8.122;2023-09-30T02:47:44;16.80;99.90
30186;DHT22;31152;49.190;8.122;2023-09-30T02:50:10;16.70;99.90
30186;DHT22;31152;49.190;8.122;2023-09-30T02:52:40;16.70;99.90
30186;DHT22;31152;49.190;8.122;2023-09-30T02:55:09;16.70;99.90
30186;DHT22;31152;49.190;8.122;2023-09-30T02:57:36;16.70;99.90
30186;DHT22;31152;49.190;8.122;2023-09-30T03:00:22;16.70;99.90
30186;DHT22;31152;49.190;8.122;2023-09-30T03:02:55;16.70;99.90
30186;DHT22;31152;49.190;8.122;2023-09-30T03:05:23;16.70;99.90
30186;DHT22;31152;49.190;8.122;2023-09-30T03:07:54;16.70;99.90
30186;DHT22;31152;49.190;8.122;2023-09-30T03:10:24;16.80;99.90
30186;DHT22;31152;49.190;8.122;2023-09-30T03:12:51;16.80;99.90
30186;DHT22;31152;49.190;8.122;2023-09-30T03:15:18;16.80;99.90
30186;DHT22;31152;49.190;8.122;2023-09-30T03:17:45;16.80;99.90
30186;DHT22;31152;49.190;8.122;2023-09-30T03:20:12;16.80;99.90
30186;DHT22;31152;49.190;8.122;2023-09-30T03:22:41;16.70;99.90
30186;DHT22;31152;49.190;8.122;2023-09-30T03:25:11;16.70;99.90
30186;DHT22;31152;49.190;8.122;2023-09-30T03:27:38;16.70;99.90
30186;DHT22;31152;49.190;8.122;2023-09-30T03:30:06;16.60;99.90
30186;DHT22;31152;49.190;8.122;2023-09-30T03:32:33;16.60;99.90
30186;DHT22;31152;49.190;8.122;2023-09-30T03:35:06;16.60;99.90
30186;DHT22;31152;49.190;8.122;2023-09-30T03:37:37;16.50;99.90
30186;DHT22;31152;49.190;8.122;2023-09-30T03:40:06;16.50;99.90
30186;DHT22;31152;49.190;8.122;2023-09-30T03:42:41;16.50;99.90
30186;DHT22;31152;49.190;8.122;2023-09-30T03:45:12;16.50;99.90
30186;DHT22;31152;49.190;8.122;2023-09-30T03:47:41;16.50;99.90
30186;DHT22;31152;49.190;8.122;2023-09-30T03:50:08;16.50;99.90
30186;DHT22;31152;49.190;8.122;2023-09-30T03:52:43;16.50;99.90
30186;DHT22;31152;49.190;8.122;2023-09-30T03:55:14;16.50;99.90
30186;DHT22;31152;49.190;8.122;2023-09-30T03:57:48;16.40;99.90
30186;DHT22;31152;49.190;8.122;2023-09-30T04:00:16;16.40;99.90
30186;DHT22;31152;49.190;8.122;2023-09-30T04:02:50;16.40;99.90
30186;DHT22;31152;49.190;8.122;2023-09-30T04:05:21;16.30;99.90
30186;DHT22;31152;49.190;8.122;2023-09-30T04:07:53;16.30;99.90
30186;DHT22;31152;49.190;8.122;2023-09-30T04:10:19;16.20;99.90
30186;DHT22;31152;49.190;8.122;2023-09-30T04:12:49;16.20;99.90
30186;DHT22;31152;49.190;8.122;2023-09-30T04:15:17;16.20;99.90
30186;DHT22;31152;49.190;8.122;2023-09-30T04:17:48;16.20;99.90
30186;DHT22;31152;49.190;8.122;2023-09-30T04:20:15;16.20;99.90
30186;DHT22;31152;49.190;8.122;2023-09-30T04:22:50;16.10;99.90
30186;DHT22;31152;49.190;8.122;2023-09-30T04:25:17;16.10;99.90
30186;DHT22;31152;49.190;8.122;2023-09-30T04:27:47;16.00;99.90
30186;DHT22;31152;49.190;8.122;2023-09-30T04:30:16;16.00;99.90
30186;DHT22;31152;49.190;8.122;2023-09-30T04:32:43;15.90;99.90
30186;DHT22;31152;49.190;8.122;2023-09-30T04:35:11;15.90;99.90
30186;DHT22;31152;49.190;8.122;2023-09-30T04:37:38;15.90;99.90
30186;DHT22;31152;49.190;8.122;2023-09-30T04:40:07;15.80;99.90
30186;DHT22;31152;49.190;8.122;2023-09-30T04:42:42;15.80;99.90
30186;DHT22;31152;49.190;8.122;2023-09-30T04:45:11;15.70;99.90
30186;DHT22;31152;49.190;8.122;2023-09-30T04:47:38;15.60;99.90
30186;DHT22;31152;49.190;8.122;2023-09-30T04:50:06;15.60;99.90
30186;DHT22;31152;49.190;8.122;2023-09-30T04:52:35;15.60;99.90
30186;DHT22;31152;49.190;8.122;2023-09-30T04:55:02;15.50;99.90
30186;DHT22;31152;49.190;8.122;2023-09-30T04:57:30;15.50;99.90
30186;DHT22;31152;49.190;8.122;2023-09-30T05:00:00;15.50;99.90
30186;DHT22;31152;49.190;8.122;2023-09-30T05:02:27;15.50;99.90
30186;DHT22;31152;49.190;8.122;2023-09-30T05:04:54;15.50;99.90
30186;DHT22;31152;49.190;8.122;2023-09-30T05:07:23;15.50;99.90
30186;DHT22;31152;49.190;8.122;2023-09-30T05:09:50;15.50;99.90
30186;DHT22;31152;49.190;8.122;2023-09-30T05:12:20;15.50;99.90
30186;DHT22;31152;49.190;8.122;2023-09-30T05:14:47;15.40;99.90
30186;DHT22;31152;49.190;8.122;2023-09-30T05:17:14;15.40;99.90
30186;DHT22;31152;49.190;8.122;2023-09-30T05:19:42;15.30;99.90
30186;DHT22;31152;49.190;8.122;2023-09-30T05:22:09;15.20;99.90
30186;DHT22;31152;49.190;8.122;2023-09-30T05:24:39;15.10;99.90
30186;DHT22;31152;49.190;8.122;2023-09-30T05:27:05;15.10;99.90
30186;DHT22;31152;49.190;8.122;2023-09-30T05:29:33;15.00;99.90
30186;DHT22;31152;49.190;8.122;2023-09-30T05:32:00;15.00;99.90
30186;DHT22;31152;49.190;8.122;2023-09-30T05:34:29;15.00;99.90
30186;DHT22;31152;49.190;8.122;2023-09-30T05:36:58;15.00;99.90
30186;DHT22;31152;49.190;8.122;2023-09-30T05:39:25;14.90;99.90
30186;DHT22;31152;49.190;8.122;2023-09-30T05:41:52;14.90;99.90
30186;DHT22;31152;49.190;8.122;2023-09-30T05:44:21;14.80;99.90
30186;DHT22;31152;49.190;8.122;2023-09-30T05:46:48;14.90;99.90
30186;DHT22;31152;49.190;8.122;2023-09-30T05:49:16;14.90;99.90
30186;DHT22;31152;49.190;8.122;2023-09-30T05:51:43;14.90;99.90
30186;DHT22;31152;49.190;8.122;2023-09-30T05:54:10;15.00;99.90
30186;DHT22;31152;49.190;8.122;2023-09-30T05:56:37;14.90;99.90
30186;DHT22;31152;49.190;8.122;2023-09-30T05:59:04;14.90;99.90
30186;DHT22;31152;49.190;8.122;2023-09-30T06:01:32;15.00;99.90
30186;DHT22;31152;49.190;8.122;2023-09-30T06:04:00;15.00;99.90
30186;DHT22;31152;49.190;8.122;2023-09-30T06:06:31;15.00;99.90
30186;DHT22;31152;49.190;8.122;2023-09-30T06:09:00;15.00;99.90
30186;DHT22;31152;49.190;8.122;2023-09-30T06:11:27;15.10;99.90
30186;DHT22;31152;49.190;8.122;2023-09-30T06:13:58;15.10;99.90
30186;DHT22;31152;49.190;8.122;2023-09-30T06:16:27;15.10;99.90
30186;DHT22;31152;49.190;8.122;2023-09-30T06:18:58;15.10;99.90
30186;DHT22;31152;49.190;8.122;2023-09-30T06:21:25;15.10;99.90
30186;DHT22;31152;49.190;8.122;2023-09-30T06:23:56;15.20;99.90
30186;DHT22;31152;49.190;8.122;2023-09-30T06:26:27;15.20;99.90
30186;DHT22;31152;49.190;8.122;2023-09-30T06:28:58;15.20;99.90
30186;DHT22;31152;49.190;8.122;2023-09-30T06:31:25;15.20;99.90
30186;DHT22;31152;49.190;8.122;2023-09-30T06:33:55;15.30;99.90
30186;DHT22;31152;49.190;8.122;2023-09-30T06:36:25;15.30;99.90
30186;DHT22;31152;49.190;8.122;2023-09-30T06:38:52;15.40;99.90
30186;DHT22;31152;49.190;8.122;2023-09-30T06:41:18;15.50;99.90
30186;DHT22;31152;49.190;8.122;2023-09-30T06:43:49;15.50;99.90
30186;DHT22;31152;49.190;8.122;2023-09-30T06:46:16;15.60;99.90
30186;DHT22;31152;49.190;8.122;2023-09-30T06:48:45;15.70;99.90
30186;DHT22;31152;49.190;8.122;2023-09-30T06:51:15;15.80;99.90
30186;DHT22;31152;49.190;8.122;2023-09-30T06:53:44;15.90;99.90
30186;DHT22;31152;49.190;8.122;2023-09-30T06:56:12;15.90;99.90
30186;DHT22;31152;49.190;8.122;2023-09-30T06:58:41;16.00;99.90
30186;DHT22;31152;49.190;8.122;2023-09-30T07:01:08;16.10;99.90
30186;DHT22;31152;49.190;8.122;2023-09-30T07:03:37;16.20;99.90
30186;DHT22;31152;49.190;8.122;2023-09-30T07:06:04;16.30;99.90
30186;DHT22;31152;49.190;8.122;2023-09-30T07:08:33;16.40;99.90
30186;DHT22;31152;49.190;8.122;2023-09-30T07:11:00;16.50;99.90
30186;DHT22;31152;49.190;8.122;2023-09-30T07:13:28;16.60;99.90
30186;DHT22;31152;49.190;8.122;2023-09-30T07:15:57;16.70;99.90
30186;DHT22;31152;49.190;8.122;2023-09-30T07:18:24;16.80;99.90
30186;DHT22;31152;49.190;8.122;2023-09-30T07:20:51;16.90;99.90
30186;DHT22;31152;49.190;8.122;2023-09-30T07:23:19;17.00;99.90
30186;DHT22;31152;49.190;8.122;2023-09-30T07:25:48;17.20;99.90
30186;DHT22;31152;49.190;8.122;2023-09-30T07:28:15;17.30;99.90
30186;DHT22;31152;49.190;8.122;2023-09-30T07:30:43;17.40;99.90
30186;DHT22;31152;49.190;8.122;2023-09-30T07:33:13;17.60;99.90
30186;DHT22;31152;49.190;8.122;2023-09-30T07:35:39;17.70;99.90
30186;DHT22;31152;49.190;8.122;2023-09-30T07:38:09;17.80;99.90
30186;DHT22;31152;49.190;8.122;2023-09-30T07:40:35;18.00;99.90
30186;DHT22;31152;49.190;8.122;2023-09-30T07:43:02;18.10;99.90
30186;DHT22;31152;49.190;8.122;2023-09-30T07:45:30;18.20;99.90
30186;DHT22;31152;49.190;8.122;2023-09-30T07:47:57;18.40;99.90
30186;DHT22;31152;49.190;8.122;2023-09-30T07:50:36;18.40;99.90
30186;DHT22;31152;49.190;8.122;2023-09-30T07:53:03;18.40;99.90
30186;DHT22;31152;49.190;8.122;2023-09-30T07:55:29;18.50;99.90
30186;DHT22;31152;49.190;8.122;2023-09-30T07:57:59;18.60;99.90
30186;DHT22;31152;49.190;8.122;2023-09-30T08:00:27;18.70;99.90
30186;DHT22;31152;49.190;8.122;2023-09-30T08:02:54;18.90;99.90
30186;DHT22;31152;49.190;8.122;2023-09-30T08:05:21;19.00;99.90
30186;DHT22;31152;49.190;8.122;2023-09-30T08:07:50;19.20;99.90
30186;DHT22;31152;49.190;8.122;2023-09-30T08:10:19;19.30;99.90
30186;DHT22;31152;49.190;8.122;2023-09-30T08:12:46;19.50;99.90
30186;DHT22;31152;49.190;8.122;2023-09-30T08:15:18;19.60;99.90
30186;DHT22;31152;49.190;8.122;2023-09-30T08:17:45;19.80;99.90
30186;DHT22;31152;49.190;8.122;2023-09-30T08:20:14;19.90;99.90
30186;DHT22;31152;49.190;8.122;2023-09-30T08:22:45;20.00;99.90
30186;DHT22;31152;49.190;8.122;2023-09-30T08:25:14;20.10;99.90
30186;DHT22;31152;49.190;8.122;2023-09-30T08:27:41;20.20;99.90
30186;DHT22;31152;49.190;8.122;2023-09-30T08:30:09;20.20;99.90
30186;DHT22;31152;49.190;8.122;2023-09-30T08:32:36;20.30;99.90
30186;DHT22;31152;49.190;8.122;2023-09-30T08:35:04;20.20;99.90
30186;DHT22;31152;49.190;8.122;2023-09-30T08:37:31;20.20;99.90
30186;DHT22;31152;49.190;8.122;2023-09-30T08:39:58;20.40;99.90
30186;DHT22;31152;49.190;8.122;2023-09-30T08:42:26;20.60;99.90
30186;DHT22;31152;49.190;8.122;2023-09-30T08:44:59;20.40;99.90
30186;DHT22;31152;49.190;8.122;2023-09-30T08:47:26;20.50;99.90
30186;DHT22;31152;49.190;8.122;2023-09-30T08:50:00;20.60;99.90
30186;DHT22;31152;49.190;8.122;2023-09-30T08:52:33;20.80;99.90
30186;DHT22;31152;49.190;8.122;2023-09-30T08:55:07;21.10;99.90
30186;DHT22;31152;49.190;8.122;2023-09-30T08:57:43;21.30;99.90
30186;DHT22;31152;49.190;8.122;2023-09-30T09:00:12;21.40;99.90
30186;DHT22;31152;49.190;8.122;2023-09-30T09:02:40;21.60;99.90
30186;DHT22;31152;49.190;8.122;2023-09-30T09:05:08;21.80;99.90
30186;DHT22;31152;49.190;8.122;2023-09-30T09:07:36;22.00;99.90
30186;DHT22;31152;49.190;8.122;2023-09-30T09:10:11;22.10;99.90
30186;DHT22;31152;49.190;8.122;2023-09-30T09:12:42;22.00;99.90
30186;DHT22;31152;49.190;8.122;2023-09-30T09:15:21;22.10;99.90
30186;DHT22;31152;49.190;8.122;2023-09-30T09:17:51;22.20;99.90
30186;DHT22;31152;49.190;8.122;2023-09-30T09:20:23;22.30;99.90
30186;DHT22;31152;49.190;8.122;2023-09-30T09:22:53;22.40;99.90
30186;DHT22;31152;49.190;8.122;2023-09-30T09:25:22;22.60;99.70
30186;DHT22;31152;49.190;8.122;2023-09-30T09:27:53;22.80;99.50
30186;DHT22;31152;49.190;8.122;2023-09-30T09:30:23;22.90;99.20
30186;DHT22;31152;49.190;8.122;2023-09-30T09:33:01;23.10;98.80
30186;DHT22;31152;49.190;8.122;2023-09-30T09:35:30;23.10;98.40
30186;DHT22;31152;49.190;8.122;2023-09-30T09:38:04;23.10;98.30
30186;DHT22;31152;49.190;8.122;2023-09-30T09:40:40;23.30;98.40
30186;DHT22;31152;49.190;8.122;2023-09-30T09:43:09;23.30;97.20
30186;DHT22;31152;49.190;8.122;2023-09-30T09:45:40;23.20;97.30
30186;DHT22;31152;49.190;8.122;2023-09-30T09:48:10;23.30;97.60
30186;DHT22;31152;49.190;8.122;2023-09-30T09:50:37;23.40;97.40
30186;DHT22;31152;49.190;8.122;2023-09-30T09:53:05;23.50;97.30
30186;DHT22;31152;49.190;8.122;2023-09-30T09:55:32;23.80;97.00
30186;DHT22;31152;49.190;8.122;2023-09-30T09:58:04;24.00;97.10
30186;DHT22;31152;49.190;8.122;2023-09-30T10:00:32;24.20;96.00
30186;DHT22;31152;49.190;8.122;2023-09-30T10:03:03;24.20;95.60
30186;DHT22;31152;49.190;8.122;2023-09-30T10:05:30;24.40;95.50
30186;DHT22;31152;49.190;8.122;2023-09-30T10:08:04;24.30;95.60
30186;DHT22;31152;49.190;8.122;2023-09-30T10:10:36;24.70;95.60
30186;DHT22;31152;49.190;8.122;2023-09-30T10:13:04;24.90;94.30
30186;DHT22;31152;49.190;8.122;2023-09-30T10:18:11;25.70;93.00
30186;DHT22;31152;49.190;8.122;2023-09-30T10:20:43;26.20;92.40
30186;DHT22;31152;49.190;8.122;2023-09-30T10:23:21;26.80;91.30
30186;DHT22;31152;49.190;8.122;2023-09-30T10:25:53;27.20;89.10
30186;DHT22;31152;49.190;8.122;2023-09-30T10:28:46;27.40;87.70
30186;DHT22;31152;49.190;8.122;2023-09-30T10:31:21;27.30;87.90
30186;DHT22;31152;49.190;8.122;2023-09-30T10:36:38;27.40;84.50
30186;DHT22;31152;49.190;8.122;2023-09-30T10:39:11;28.00;83.20
30186;DHT22;31152;49.190;8.122;2023-09-30T10:47:00;28.50;82.20
30186;DHT22;31152;49.190;8.122;2023-09-30T10:49:50;29.10;80.60
30186;DHT22;31152;49.190;8.122;2023-09-30T10:52:23;29.60;77.50
30186;DHT22;31152;49.190;8.122;2023-09-30T10:54:51;29.80;77.70
30186;DHT22;31152;49.190;8.122;2023-09-30T10:57:27;30.30;75.00
30186;DHT22;31152;49.190;8.122;2023-09-30T11:00:11;30.70;74.00
30186;DHT22;31152;49.190;8.122;2023-09-30T11:02:48;31.00;72.70
30186;DHT22;31152;49.190;8.122;2023-09-30T11:05:15;31.00;70.90
30186;DHT22;31152;49.190;8.122;2023-09-30T11:07:44;31.20;68.90
30186;DHT22;31152;49.190;8.122;2023-09-30T11:10:18;30.80;69.20
30186;DHT22;31152;49.190;8.122;2023-09-30T11:12:55;30.60;69.50
30186;DHT22;31152;49.190;8.122;2023-09-30T11:15:23;30.40;68.30
30186;DHT22;31152;49.190;8.122;2023-09-30T11:17:52;29.70;68.10
30186;DHT22;31152;49.190;8.122;2023-09-30T11:20:21;29.00;71.80
30186;DHT22;31152;49.190;8.122;2023-09-30T11:22:50;28.30;71.00
30186;DHT22;31152;49.190;8.122;2023-09-30T11:25:18;27.20;73.00
30186;DHT22;31152;49.190;8.122;2023-09-30T11:27:45;26.50;76.10
30186;DHT22;31152;49.190;8.122;2023-09-30T11:30:13;26.80;77.30
30186;DHT22;31152;49.190;8.122;2023-09-30T11:32:43;27.30;75.90
30186;DHT22;31152;49.190;8.122;2023-09-30T11:35:24;27.60;75.60
30186;DHT22;31152;49.190;8.122;2023-09-30T11:37:51;27.70;73.90
30186;DHT22;31152;49.190;8.122;2023-09-30T11:40:18;28.00;73.20
30186;DHT22;31152;49.190;8.122;2023-09-30T11:43:06;28.20;71.70
30186;DHT22;31152;49.190;8.122;2023-09-30T11:45:33;28.40;71.80
30186;DHT22;31152;49.190;8.122;2023-09-30T11:48:00;28.20;71.40
30186;DHT22;31152;49.190;8.122;2023-09-30T11:50:53;27.50;72.80
30186;DHT22;31152;49.190;8.122;2023-09-30T11:53:21;26.60;74.90
30186;DHT22;31152;49.190;8.122;2023-09-30T11:55:51;26.30;76.30
30186;DHT22;31152;49.190;8.122;2023-09-30T11:58:21;26.20;76.30
30186;DHT22;31152;49.190;8.122;2023-09-30T12:00:57;26.80;77.50
30186;DHT22;31152;49.190;8.122;2023-09-30T12:03:24;27.60;78.50
30186;DHT22;31152;49.190;8.122;2023-09-30T12:05:52;28.40;73.40
30186;DHT22;31152;49.190;8.122;2023-09-30T12:08:22;28.90;72.20
30186;DHT22;31152;49.190;8.122;2023-09-30T12:10:49;29.60;71.30
30186;DHT22;31152;49.190;8.122;2023-09-30T12:13:16;30.10;71.60
30186;DHT22;31152;49.190;8.122;2023-09-30T12:15:43;30.80;68.30
30186;DHT22;31152;49.190;8.122;2023-09-30T12:18:10;31.00;64.70
30186;DHT22;31152;49.190;8.122;2023-09-30T12:20:40;31.10;66.20
30186;DHT22;31152;49.190;8.122;2023-09-30T12:23:10;30.80;64.60
30186;DHT22;31152;49.190;8.122;2023-09-30T12:25:37;30.80;66.60
30186;DHT22;31152;49.190;8.122;2023-09-30T12:28:04;30.80;65.80
30186;DHT22;31152;49.190;8.122;2023-09-30T12:30:31;30.50;64.70
30186;DHT22;31152;49.190;8.122;2023-09-30T12:32:58;30.10;65.10
30186;DHT22;31152;49.190;8.122;2023-09-30T12:35:26;29.50;65.70
30186;DHT22;31152;49.190;8.122;2023-09-30T12:37:57;28.80;68.40
30186;DHT22;31152;49.190;8.122;2023-09-30T12:40:26;28.50;69.70
30186;DHT22;31152;49.190;8.122;2023-09-30T12:42:53;27.80;70.30
30186;DHT22;31152;49.190;8.122;2023-09-30T12:45:26;27.70;71.20
30186;DHT22;31152;49.190;8.122;2023-09-30T12:47:53;27.70;71.10
30186;DHT22;31152;49.190;8.122;2023-09-30T12:50:23;28.00;72.10
30186;DHT22;31152;49.190;8.122;2023-09-30T12:52:49;28.10;71.10
30186;DHT22;31152;49.190;8.122;2023-09-30T12:55:16;28.30;69.90
30186;DHT22;31152;49.190;8.122;2023-09-30T12:57:43;28.40;69.50
30186;DHT22;31152;49.190;8.122;2023-09-30T13:00:10;28.60;68.80
30186;DHT22;31152;49.190;8.122;2023-09-30T13:02:37;28.80;68.20
30186;DHT22;31152;49.190;8.122;2023-09-30T13:05:06;28.80;68.40
30186;DHT22;31152;49.190;8.122;2023-09-30T13:07:34;28.60;69.40
30186;DHT22;31152;49.190;8.122;2023-09-30T13:10:00;28.60;68.30
30186;DHT22;31152;49.190;8.122;2023-09-30T13:12:27;28.90;68.00
30186;DHT22;31152;49.190;8.122;2023-09-30T13:14:54;28.80;67.30
30186;DHT22;31152;49.190;8.122;2023-09-30T13:17:22;29.10;69.40
30186;DHT22;31152;49.190;8.122;2023-09-30T13:19:50;29.40;68.80
30186;DHT22;31152;49.190;8.122;2023-09-30T13:22:18;30.00;67.00
30186;DHT22;31152;49.190;8.122;2023-09-30T13:24:47;30.00;64.80
30186;DHT22;31152;49.190;8.122;2023-09-30T13:27:14;30.20;66.40
30186;DHT22;31152;49.190;8.122;2023-09-30T13:29:45;30.40;62.50
30186;DHT22;31152;49.190;8.122;2023-09-30T13:32:14;29.40;61.90
30186;DHT22;31152;49.190;8.122;2023-09-30T13:34:41;29.10;63.10
30186;DHT22;31152;49.190;8.122;2023-09-30T13:37:07;28.50;63.20
30186;DHT22;31152;49.190;8.122;2023-09-30T13:39:34;28.10;65.10
30186;DHT22;31152;49.190;8.122;2023-09-30T13:42:01;27.50;64.80
30186;DHT22;31152;49.190;8.122;2023-09-30T13:44:28;27.00;67.90
30186;DHT22;31152;49.190;8.122;2023-09-30T13:46:57;27.20;70.40
30186;DHT22;31152;49.190;8.122;2023-09-30T13:49:24;27.50;70.50
30186;DHT22;31152;49.190;8.122;2023-09-30T13:51:51;27.70;69.30
30186;DHT22;31152;49.190;8.122;2023-09-30T13:54:18;27.90;69.90
30186;DHT22;31152;49.190;8.122;2023-09-30T13:56:45;27.90;69.70
30186;DHT22;31152;49.190;8.122;2023-09-30T13:59:14;27.90;70.70
30186;DHT22;31152;49.190;8.122;2023-09-30T14:01:40;27.90;70.10
30186;DHT22;31152;49.190;8.122;2023-09-30T14:04:09;27.80;69.20
30186;DHT22;31152;49.190;8.122;2023-09-30T14:06:38;27.90;70.70
30186;DHT22;31152;49.190;8.122;2023-09-30T14:09:07;28.00;69.60
30186;DHT22;31152;49.190;8.122;2023-09-30T14:12:01;27.80;69.80
30186;DHT22;31152;49.190;8.122;2023-09-30T14:14:34;27.70;69.80
30186;DHT22;31152;49.190;8.122;2023-09-30T14:17:01;27.70;70.70
30186;DHT22;31152;49.190;8.122;2023-09-30T14:19:34;27.70;70.30
30186;DHT22;31152;49.190;8.122;2023-09-30T14:22:01;27.70;69.40
30186;DHT22;31152;49.190;8.122;2023-09-30T14:24:28;27.40;70.40
30186;DHT22;31152;49.190;8.122;2023-09-30T14:26:55;27.20;70.50
30186;DHT22;31152;49.190;8.122;2023-09-30T14:29:25;27.00;71.10
30186;DHT22;31152;49.190;8.122;2023-09-30T14:31:51;26.90;71.10
30186;DHT22;31152;49.190;8.122;2023-09-30T14:34:18;26.60;72.10
30186;DHT22;31152;49.190;8.122;2023-09-30T14:36:45;26.60;73.60
30186;DHT22;31152;49.190;8.122;2023-09-30T14:39:14;26.50;73.30
30186;DHT22;31152;49.190;8.122;2023-09-30T14:41:45;26.30;73.20
30186;DHT22;31152;49.190;8.122;2023-09-30T14:44:12;26.10;73.30
30186;DHT22;31152;49.190;8.122;2023-09-30T14:46:39;25.90;74.00
30186;DHT22;31152;49.190;8.122;2023-09-30T14:49:07;25.80;74.20
30186;DHT22;31152;49.190;8.122;2023-09-30T14:51:35;25.70;74.40
30186;DHT22;31152;49.190;8.122;2023-09-30T14:54:03;25.60;74.90
30186;DHT22;31152;49.190;8.122;2023-09-30T14:56:30;25.60;75.00
30186;DHT22;31152;49.190;8.122;2023-09-30T14:58:57;25.60;75.70
30186;DHT22;31152;49.190;8.122;2023-09-30T15:01:24;25.60;75.80
30186;DHT22;31152;49.190;8.122;2023-09-30T15:03:52;25.80;76.20
30186;DHT22;31152;49.190;8.122;2023-09-30T15:06:19;25.70;75.50
30186;DHT22;31152;49.190;8.122;2023-09-30T15:08:47;25.80;75.70
30186;DHT22;31152;49.190;8.122;2023-09-30T15:11:14;25.90;75.30
30186;DHT22;31152;49.190;8.122;2023-09-30T15:13:43;26.10;75.00
30186;DHT22;31152;49.190;8.122;2023-09-30T15:16:20;26.30;74.60
30186;DHT22;31152;49.190;8.122;2023-09-30T15:18:48;26.60;74.30
30186;DHT22;31152;49.190;8.122;2023-09-30T15:21:16;26.80;74.10
30186;DHT22;31152;49.190;8.122;2023-09-30T15:23:43;26.80;73.00
30186;DHT22;31152;49.190;8.122;2023-09-30T15:26:12;26.70;73.00
30186;DHT22;31152;49.190;8.122;2023-09-30T15:28:39;26.80;72.90
30186;DHT22;31152;49.190;8.122;2023-09-30T15:31:06;26.60;72.50
30186;DHT22;31152;49.190;8.122;2023-09-30T15:33:37;26.50;72.70
30186;DHT22;31152;49.190;8.122;2023-09-30T15:36:14;26.50;72.40
30186;DHT22;31152;49.190;8.122;2023-09-30T15:38:45;26.60;72.20
30186;DHT22;31152;49.190;8.122;2023-09-30T15:41:14;26.50;72.20
30186;DHT22;31152;49.190;8.122;2023-09-30T15:43:41;26.50;72.40
30186;DHT22;31152;49.190;8.122;2023-09-30T15:46:09;26.20;72.60
30186;DHT22;31152;49.190;8.122;2023-09-30T15:48:39;25.80;74.00
30186;DHT22;31152;49.190;8.122;2023-09-30T15:51:05;25.80;74.50
30186;DHT22;31152;49.190;8.122;2023-09-30T15:53:32;25.90;74.20